Altus, OK

9:44 PM CST on February 09, 2016 (GMT -0600)
Altus Municipal | | Change Station
CLOSE
Current Station
Airport
Location: Altus,
Elevation: 1434 ft
Nearby Weather Stations
Active Advisory: Fire Weather Watch

Elev 1434 ft 34.70 °N, 99.34 °W | Updated 9 minutes ago

Clear
Clear
40 °F
Feels Like 36 °F
N
6
Wind Variable Wind from ENE

Today
High -- | Low -- °F
--% Chance of Precip.
Yesterday
High -- | Low -- °F
Precip. -- in
Pressure 30.33 in
Visibility 10.0 miles
Clouds Clear
Windchill 36 °F
Dew Point 27 °F
Humidity 59%
Rainfall 0.00 in
Snow Depth Not available.
7:29 AM 6:14 PM
Waxing Crescent, 3% visible
METAR KAXS 100335Z AUTO 07005KT 10SM CLR 05/M03 A3033 RMK AO2 T00471028
Pressure 30.33 in
Visibility 10.0 miles
Clouds Clear
Windchill 36 °F
Dew Point 27 °F
Humidity 59%
Rainfall 0.00 in
Snow Depth Not available.
7:29 AM 6:14 PM
Waxing Crescent, 3% visible
METAR KAXS 100335Z AUTO 07005KT 10SM CLR 05/M03 A3033 RMK AO2 T00471028

10-Day Weather Forecast

Almanac

Astronomy

Feb. 09, 2016 Rise Set
Actual Time
Civil Twilight
Nautical Twilight
Astronomical Twilight
Moon
Length of Visible Light
Length of Day
Tomorrow will be .
, % of the Moon is Illuminated

Today's Extremes

State Highs State Lows

Community

WunderPhotos

Upload Photos

1,891,792 photos uploaded!

WunderBlog® & News

Nearby

Air Quality

  Air Quality AQ Index Pollutant
Not available.

Snow Depth

Station Depth Elevation

Earthquake Activity

City Distance Mag. Time & Date
Minimum magnitude displayed is 2.5.

Coastal Water Temperatures

Place Temperature

Stations

Nearby Weather Stations

Station Location Temp. Windchill Dew Point Humidity Wind Precip. Elev Updated Type
                   

Watches & Warnings

Fire Weather Watch
Issued: 8:59 PM CST Feb. 9, 2016 – National Weather Service

... Fire Weather Watch in effect from Wednesday morning through
Wednesday evening for breezy conditions... unseasonably warm
temperatures... and low relative humidity for parts of northern...
central... western... and southern Oklahoma as well as western
North Texas...

The National Weather Service in Norman has issued a Fire Weather
Watch... which is in effect from Wednesday morning through
Wednesday evening.

* Timing... 11 am to 7 PM.

* Wind... west to southwest 15 to 25 mph with gusts 20 to 30 mph.

* Humidity... 15 to 25 percent.

* Temperature... 65 to 80 degrees.

* Impacts... any fires that develop will likely spread rapidly.
Outdoor burning is not recommended.

Precautionary/preparedness actions...

Monitor weather forecasts and information.



Mbs